createdAt,value
2024-02-22T00:01:11.829Z,8.33
2024-02-22T00:04:35.586Z,8.14
2024-02-22T00:07:45.114Z,8.17
2024-02-22T00:10:49.028Z,8.11
2024-02-22T00:13:53.272Z,8.07
2024-02-22T00:16:59.981Z,7.95
2024-02-22T00:20:17.824Z,7.89
2024-02-22T00:23:31.637Z,7.86
2024-02-22T00:26:36.251Z,7.59
2024-02-22T00:29:39.776Z,7.64
2024-02-22T00:32:49.249Z,7.60
2024-02-22T00:35:53.352Z,7.51
2024-02-22T00:39:05.058Z,7.64
2024-02-22T00:42:23.226Z,7.63
2024-02-22T00:45:27.213Z,7.53
2024-02-22T00:48:31.109Z,7.37
2024-02-22T00:51:34.497Z,7.41
2024-02-22T00:54:51.557Z,7.29
2024-02-22T00:58:09.672Z,7.34
2024-02-22T01:01:19.306Z,7.27
2024-02-22T01:04:28.746Z,7.17
2024-02-22T01:07:35.763Z,7.15
2024-02-22T01:10:49.345Z,7.19
2024-02-22T01:14:01.284Z,7.51
2024-02-22T01:17:10.986Z,7.61
2024-02-22T01:20:21.993Z,7.24
2024-02-22T01:23:35.269Z,7.08
2024-02-22T01:26:51.900Z,7.10
2024-02-22T01:30:05.550Z,6.99
2024-02-22T01:33:23.479Z,7.06
2024-02-22T01:36:46.304Z,6.95
2024-02-22T01:40:25.234Z,6.96
2024-02-22T01:43:35.984Z,7.01
2024-02-22T01:46:59.481Z,6.96
2024-02-22T01:50:23.578Z,7.09
2024-02-22T01:53:42.629Z,6.89
2024-02-22T01:57:00.967Z,6.97
2024-02-22T02:00:24.876Z,6.98
2024-02-22T02:03:49.322Z,6.88
2024-02-22T02:07:20.620Z,6.82
2024-02-22T02:10:41.884Z,6.68
2024-02-22T02:13:51.842Z,6.63
2024-02-22T02:16:59.092Z,6.60
2024-02-22T02:20:10.487Z,6.52
2024-02-22T02:23:49.057Z,6.43
2024-02-22T02:26:55.024Z,6.48
2024-02-22T02:30:01.898Z,6.39
2024-02-22T02:33:11.525Z,6.48
2024-02-22T02:36:15.434Z,6.46
2024-02-22T02:39:26.854Z,6.45
2024-02-22T02:42:33.073Z,6.46
2024-02-22T02:45:49.176Z,6.56
2024-02-22T02:48:53.030Z,6.58
2024-02-22T02:52:04.543Z,6.61
2024-02-22T02:55:08.097Z,6.63
2024-02-22T02:58:31.139Z,6.62
2024-02-22T03:01:54.508Z,6.77
2024-02-22T03:05:01.576Z,6.58
2024-02-22T03:08:06.147Z,6.62
2024-02-22T03:11:23.090Z,6.54
2024-02-22T03:14:39.105Z,6.48
2024-02-22T03:18:00.156Z,6.44
2024-02-22T03:21:29.021Z,6.46
2024-02-22T03:24:50.865Z,6.53
2024-02-22T03:28:08.637Z,6.49
2024-02-22T03:31:25.985Z,6.36
2024-02-22T03:34:50.161Z,6.34
2024-02-22T03:38:10.582Z,6.34
2024-02-22T03:41:35.683Z,6.27
2024-02-22T03:44:59.028Z,6.13
2024-02-22T03:48:25.183Z,6.11
2024-02-22T03:51:50.036Z,6.14
2024-02-22T03:54:53.194Z,6.11
2024-02-22T03:57:57.009Z,6.07
2024-02-22T04:01:10.476Z,6.07
2024-02-22T04:04:31.596Z,6.09
2024-02-22T04:07:54.525Z,6.03
2024-02-22T04:10:58.018Z,6.08
2024-02-22T04:14:23.287Z,6.11
2024-02-22T04:18:00.564Z,6.05
2024-02-22T04:21:11.250Z,6.14
2024-02-22T04:24:27.882Z,6.07
2024-02-22T04:28:07.904Z,6.00
2024-02-22T04:31:31.425Z,6.05
2024-02-22T04:34:51.717Z,6.09
2024-02-22T04:38:14.563Z,6.08
2024-02-22T04:41:24.092Z,6.09
2024-02-22T04:44:47.903Z,6.08
2024-02-22T04:48:21.837Z,6.09
2024-02-22T04:51:33.683Z,6.15
2024-02-22T04:54:42.502Z,6.10
2024-02-22T04:57:55.558Z,6.10
2024-02-22T05:01:01.913Z,6.15
2024-02-22T05:04:08.571Z,6.20
2024-02-22T05:07:16.123Z,6.34
2024-02-22T05:10:27.449Z,6.29
2024-02-22T05:13:41.937Z,6.30
2024-02-22T05:17:03.029Z,6.26
2024-02-22T05:20:19.893Z,6.22
2024-02-22T05:23:37.276Z,6.16
2024-02-22T05:27:02.765Z,6.17
2024-02-22T05:30:25.711Z,6.18
2024-02-22T05:33:50.761Z,6.33
2024-02-22T05:37:17.630Z,6.26
2024-02-22T05:40:37.526Z,6.19
2024-02-22T05:43:41.385Z,6.28
2024-02-22T05:46:53.675Z,6.30
2024-02-22T05:50:11.254Z,6.25
2024-02-22T05:53:26.221Z,6.36
2024-02-22T05:56:52.341Z,6.40
2024-02-22T06:00:15.708Z,6.34
2024-02-22T06:03:39.775Z,6.44
2024-02-22T06:07:06.757Z,6.48
2024-02-22T06:10:29.937Z,6.64
2024-02-22T06:13:53.747Z,6.80
2024-02-22T06:17:17.766Z,6.90
2024-02-22T06:20:35.211Z,6.82
2024-02-22T06:23:41.234Z,6.75
2024-02-22T06:27:04.657Z,6.86
2024-02-22T06:30:41.442Z,7.09
2024-02-22T06:33:56.518Z,7.03
2024-02-22T06:37:02.921Z,7.13
2024-02-22T06:40:12.102Z,7.10
2024-02-22T06:43:20.436Z,7.05
2024-02-22T06:46:37.712Z,7.14
2024-02-22T06:49:54.208Z,7.24
2024-02-22T06:52:57.996Z,7.47
2024-02-22T06:56:02.204Z,7.51
2024-02-22T06:59:13.592Z,7.44
2024-02-22T07:02:21.047Z,7.67
2024-02-22T07:05:39.972Z,7.73
2024-02-22T07:09:02.555Z,7.79
2024-02-22T07:12:12.416Z,8.08
2024-02-22T07:15:36.464Z,8.12
2024-02-22T07:22:28.197Z,8.13
2024-02-22T07:25:35.563Z,8.38
2024-02-22T07:28:40.717Z,8.39
2024-02-22T07:31:44.851Z,8.47
2024-02-22T07:34:55.251Z,8.25
2024-02-22T07:38:05.184Z,8.39
2024-02-22T07:41:19.116Z,8.65
2024-02-22T07:44:24.942Z,8.54
2024-02-22T07:47:37.873Z,8.68
2024-02-22T07:50:48.145Z,8.67
2024-02-22T07:54:02.830Z,8.81
2024-02-22T07:57:19.270Z,8.69
2024-02-22T08:00:36.597Z,8.82
2024-02-22T08:03:46.186Z,8.86
2024-02-22T08:06:57.815Z,8.97
2024-02-22T08:10:22.703Z,8.85
2024-02-22T08:13:38.695Z,8.86
2024-02-22T08:16:48.890Z,8.94
2024-02-22T08:20:30.442Z,9.21
2024-02-22T08:24:42.680Z,9.36
2024-02-22T08:27:58.364Z,9.34
2024-02-22T08:31:30.842Z,9.46
2024-02-22T08:34:49.226Z,9.57
2024-02-22T08:38:09.492Z,9.53
2024-02-22T08:41:15.850Z,9.57
2024-02-22T08:44:29.079Z,9.51
2024-02-22T08:48:57.623Z,9.84
2024-02-22T08:52:30.123Z,10.38
2024-02-22T08:55:39.535Z,10.03
2024-02-22T08:58:45.499Z,10.04
2024-02-22T09:01:50.735Z,9.71
2024-02-22T09:04:55.324Z,9.80
2024-02-22T09:08:01.565Z,9.88
2024-02-22T09:11:09.950Z,10.00
2024-02-22T09:14:23.804Z,9.93
2024-02-22T09:17:48.341Z,10.06
2024-02-22T09:21:12.128Z,10.05
2024-02-22T09:24:29.333Z,10.00
2024-02-22T09:27:35.594Z,10.35
2024-02-22T09:30:48.634Z,10.60
2024-02-22T09:33:56.965Z,11.03
2024-02-22T09:37:07.896Z,11.12
2024-02-22T09:40:21.598Z,11.34
2024-02-22T09:43:49.284Z,11.52
2024-02-22T09:47:24.256Z,11.74
2024-02-22T09:50:38.348Z,11.64
2024-02-22T09:54:08.730Z,11.47
2024-02-22T09:57:39.584Z,11.62
2024-02-22T10:01:34.899Z,12.00
2024-02-22T10:04:57.774Z,12.23
2024-02-22T10:08:13.187Z,11.81
2024-02-22T10:11:27.187Z,11.99
2024-02-22T10:14:49.336Z,12.10
2024-02-22T10:18:07.252Z,12.35
2024-02-22T10:21:28.821Z,12.63
2024-02-22T10:24:55.057Z,13.04
2024-02-22T10:28:01.717Z,13.23
2024-02-22T10:31:23.033Z,13.46
2024-02-22T10:34:35.736Z,13.76
2024-02-22T10:38:02.115Z,13.33
2024-02-22T10:41:36.384Z,13.23
2024-02-22T10:44:54.272Z,13.38
2024-02-22T10:58:35.345Z,14.28
2024-02-22T11:01:42.872Z,14.56
2024-02-22T11:04:51.164Z,13.90
2024-02-22T11:08:12.167Z,14.02
2024-02-22T11:15:43.018Z,14.00
2024-02-22T11:19:06.135Z,13.49
2024-02-22T11:22:22.263Z,13.71
2024-02-22T11:25:30.374Z,13.57
2024-02-22T11:28:36.122Z,13.52
2024-02-22T11:32:00.757Z,13.44
2024-02-22T11:35:21.628Z,13.76
2024-02-22T11:38:36.490Z,13.94
2024-02-22T11:41:57.837Z,13.45
2024-02-22T11:45:21.341Z,13.55
2024-02-22T11:48:51.514Z,13.65
2024-02-22T11:52:06.123Z,13.73
2024-02-22T11:55:18.839Z,14.07
2024-02-22T11:58:23.700Z,13.85
2024-02-22T12:01:30.400Z,13.77
2024-02-22T12:04:50.742Z,13.69
2024-02-22T12:08:23.500Z,14.05
2024-02-22T12:11:44.596Z,13.76
2024-02-22T12:15:00.274Z,13.65
2024-02-22T12:18:08.560Z,13.90
2024-02-22T12:21:13.682Z,14.04
2024-02-22T12:24:21.681Z,13.76
2024-02-22T12:27:28.303Z,14.08
2024-02-22T12:30:43.953Z,13.89
2024-02-22T12:33:55.207Z,14.15
2024-02-22T12:37:11.137Z,13.95
2024-02-22T12:40:21.982Z,14.25
2024-02-22T12:43:35.501Z,14.22
2024-02-22T12:46:41.642Z,14.34
2024-02-22T12:49:53.979Z,14.20
2024-02-22T12:53:10.475Z,14.27
2024-02-22T12:56:37.468Z,14.18
2024-02-22T13:00:01.553Z,14.06
2024-02-22T13:03:08.959Z,13.88
2024-02-22T13:06:27.337Z,14.06
2024-02-22T13:09:35.749Z,14.29
2024-02-22T13:12:53.180Z,14.42
2024-02-22T13:16:06.138Z,14.37
2024-02-22T13:19:11.481Z,14.48
2024-02-22T13:22:22.733Z,14.63
2024-02-22T13:25:27.479Z,14.83
2024-02-22T13:28:51.949Z,14.77
2024-02-22T13:32:05.540Z,14.83
2024-02-22T13:35:30.982Z,14.61
2024-02-22T13:38:40.750Z,14.86
2024-02-22T13:41:46.370Z,14.92
2024-02-22T13:45:03.668Z,14.70
2024-02-22T13:48:14.850Z,14.75
2024-02-22T13:52:11.020Z,14.68
2024-02-22T13:55:34.737Z,14.63
2024-02-22T13:58:48.648Z,14.36
2024-02-22T14:01:54.011Z,14.36
2024-02-22T14:05:06.325Z,14.33
2024-02-22T14:08:30.602Z,14.31
2024-02-22T14:11:39.826Z,14.31
2024-02-22T14:15:03.898Z,14.26
2024-02-22T14:18:19.042Z,14.19
2024-02-22T14:21:29.754Z,14.32
2024-02-22T14:24:43.669Z,13.99
2024-02-22T14:28:06.158Z,13.92
2024-02-22T14:31:28.458Z,14.01
2024-02-22T14:34:34.729Z,13.91
2024-02-22T14:37:58.816Z,13.77
2024-02-22T14:41:10.717Z,13.69
2024-02-22T14:44:28.492Z,13.67
2024-02-22T14:48:12.968Z,13.75
2024-02-22T14:51:37.490Z,13.78
2024-02-22T14:54:44.708Z,13.66
2024-02-22T14:58:01.832Z,13.61
2024-02-22T15:01:10.692Z,13.85
2024-02-22T15:04:18.216Z,13.54
2024-02-22T15:07:27.831Z,13.63
2024-02-22T15:10:43.454Z,13.54
2024-02-22T15:13:48.800Z,13.73
2024-02-22T15:16:57.213Z,13.44
2024-02-22T15:20:03.680Z,13.50
2024-02-22T15:23:15.473Z,13.67
2024-02-22T15:26:22.178Z,13.58
2024-02-22T15:29:25.821Z,13.42
2024-02-22T15:32:33.588Z,13.42
2024-02-22T15:35:38.691Z,13.47
2024-02-22T15:38:42.141Z,13.55
2024-02-22T15:42:06.511Z,13.50
2024-02-22T15:45:22.982Z,13.67
2024-02-22T15:48:45.764Z,13.65
2024-02-22T15:51:49.968Z,13.64
2024-02-22T15:54:54.687Z,13.56
2024-02-22T15:57:59.530Z,13.60
2024-02-22T16:01:18.713Z,13.68
2024-02-22T16:04:34.610Z,13.64
2024-02-22T16:07:53.286Z,13.62
2024-02-22T16:11:03.469Z,13.53
2024-02-22T16:14:27.315Z,13.54
2024-02-22T16:17:42.084Z,13.27
2024-02-22T16:20:56.139Z,13.45
2024-02-22T16:24:15.598Z,13.38
2024-02-22T16:27:31.508Z,13.34
2024-02-22T16:30:35.525Z,13.21
2024-02-22T16:33:50.397Z,13.33
2024-02-22T16:36:54.663Z,13.28
2024-02-22T16:40:02.409Z,13.21
2024-02-22T16:43:16.531Z,13.34
2024-02-22T16:46:38.439Z,13.07
2024-02-22T16:50:08.405Z,13.14
2024-02-22T16:53:16.023Z,13.14
2024-02-22T16:56:32.506Z,13.01
2024-02-22T16:59:55.619Z,13.20
2024-02-22T17:03:20.235Z,13.04
2024-02-22T17:06:38.169Z,13.15
2024-02-22T17:09:47.959Z,13.01
2024-02-22T17:13:12.229Z,12.95
2024-02-22T17:16:48.061Z,12.95
2024-02-22T17:20:10.657Z,12.87
2024-02-22T17:23:14.920Z,12.91
2024-02-22T17:26:19.689Z,12.84
2024-02-22T17:29:30.695Z,12.92
2024-02-22T17:32:54.113Z,12.90
2024-02-22T17:36:18.054Z,12.89
2024-02-22T17:39:36.618Z,12.75
2024-02-22T17:42:55.622Z,12.85
2024-02-22T17:46:12.206Z,12.67
2024-02-22T17:49:29.276Z,12.62
2024-02-22T17:52:52.172Z,12.83
2024-02-22T17:56:15.056Z,12.78
2024-02-22T17:59:19.566Z,12.62
2024-02-22T18:02:30.505Z,13.00
2024-02-22T18:05:42.482Z,12.62
2024-02-22T18:08:46.781Z,12.56
2024-02-22T18:11:50.417Z,12.62
2024-02-22T18:15:01.268Z,12.83
2024-02-22T18:18:06.671Z,12.64
2024-02-22T18:21:29.976Z,12.76
2024-02-22T18:24:44.781Z,12.69
2024-02-22T18:28:01.219Z,12.58
2024-02-22T18:31:24.918Z,12.42
2024-02-22T18:34:37.688Z,12.79
2024-02-22T18:37:44.659Z,12.91
2024-02-22T18:40:50.129Z,12.82
2024-02-22T18:44:07.970Z,12.71
2024-02-22T18:47:24.217Z,12.92
2024-02-22T18:50:39.887Z,12.56
2024-02-22T18:53:49.191Z,12.68
2024-02-22T18:57:00.775Z,12.60
2024-02-22T19:00:19.587Z,12.57
2024-02-22T19:03:24.639Z,12.45
2024-02-22T19:06:40.498Z,12.41
2024-02-22T19:09:58.207Z,12.34
2024-02-22T19:13:15.473Z,12.39
2024-02-22T19:16:38.118Z,12.26
2024-02-22T19:20:08.823Z,12.38
2024-02-22T19:23:26.428Z,12.23
2024-02-22T19:26:44.045Z,12.26
2024-02-22T19:30:06.415Z,12.24
2024-02-22T19:33:10.710Z,12.21
2024-02-22T19:36:30.135Z,12.32
2024-02-22T19:39:45.048Z,12.30
2024-02-22T19:43:08.697Z,12.17
2024-02-22T19:46:16.928Z,12.19
2024-02-22T19:49:20.260Z,12.23
2024-02-22T19:52:24.201Z,12.08
2024-02-22T19:55:32.724Z,12.27
2024-02-22T19:58:49.650Z,12.12
2024-02-22T20:02:12.771Z,12.22
2024-02-22T20:05:48.681Z,12.03
2024-02-22T20:08:58.866Z,11.98
2024-02-22T20:12:22.679Z,12.01
2024-02-22T20:15:41.262Z,12.09
2024-02-22T20:19:04.930Z,11.93
2024-02-22T20:22:08.790Z,12.13
2024-02-22T20:25:14.320Z,12.00
2024-02-22T20:28:23.864Z,11.98
2024-02-22T20:31:49.611Z,11.91
2024-02-22T20:35:22.402Z,11.86
2024-02-22T20:38:29.995Z,11.74
2024-02-22T20:41:53.479Z,11.80
2024-02-22T20:45:27.073Z,11.73
2024-02-22T20:48:34.691Z,11.69
2024-02-22T20:51:56.095Z,11.79
2024-02-22T20:55:20.494Z,11.64
2024-02-22T20:58:54.692Z,11.78
2024-02-22T21:02:17.192Z,11.57
2024-02-22T21:05:41.395Z,11.70
2024-02-22T21:09:02.303Z,11.84
2024-02-22T21:12:06.314Z,11.68
2024-02-22T21:15:10.478Z,11.83
2024-02-22T21:18:33.596Z,12.04
2024-02-22T21:21:45.158Z,12.07
2024-02-22T21:24:52.183Z,11.82
2024-02-22T21:28:05.824Z,11.97
2024-02-22T21:31:11.745Z,12.15
2024-02-22T21:34:20.904Z,11.99
2024-02-22T21:37:42.305Z,12.19
2024-02-22T21:40:45.639Z,12.24
2024-02-22T21:43:50.332Z,12.11
2024-02-22T21:47:00.900Z,12.04
2024-02-22T21:50:10.058Z,12.22
2024-02-22T21:53:17.288Z,12.29
2024-02-22T21:56:24.941Z,12.36
2024-02-22T21:59:36.328Z,12.02
2024-02-22T22:03:02.472Z,12.26
2024-02-22T22:06:23.403Z,12.19
2024-02-22T22:09:45.349Z,12.23
2024-02-22T22:13:08.279Z,12.32
2024-02-22T22:16:29.339Z,12.28
2024-02-22T22:19:52.624Z,12.12
2024-02-22T22:23:15.371Z,12.12
2024-02-22T22:26:38.680Z,12.18
2024-02-22T22:29:59.233Z,12.40
2024-02-22T22:33:22.369Z,12.23
2024-02-22T22:36:26.313Z,12.31
2024-02-22T22:39:30.532Z,12.37
2024-02-22T22:42:40.026Z,12.24
2024-02-22T22:45:56.664Z,12.20
2024-02-22T22:49:22.256Z,12.10
2024-02-22T22:52:45.219Z,12.14
2024-02-22T22:55:54.960Z,12.18
2024-02-22T22:59:11.209Z,12.20
2024-02-22T23:02:47.213Z,12.20
2024-02-22T23:06:05.784Z,12.13
2024-02-22T23:09:33.172Z,12.38
2024-02-22T23:13:00.124Z,12.39
2024-02-22T23:16:21.959Z,12.29
2024-02-22T23:19:27.902Z,12.16
2024-02-22T23:22:33.127Z,12.24
2024-02-22T23:25:39.498Z,12.20
2024-02-22T23:28:46.794Z,12.17
2024-02-22T23:32:03.423Z,12.24
2024-02-22T23:35:14.294Z,12.05
2024-02-22T23:38:22.340Z,11.87
2024-02-22T23:41:46.093Z,11.93
2024-02-22T23:44:51.746Z,11.78
2024-02-22T23:48:15.147Z,11.86
2024-02-22T23:51:38.181Z,11.72
2024-02-22T23:54:47.678Z,11.81
2024-02-22T23:57:57.574Z,11.58
